Главная страница
METAR-TAF:

METAR-TAF

Аэропорты :

Турсбю, Швеция

широта: 60-09-17N, долгота: 12-59-40E, высота над уровнем моря: 120 м

Текущие метеонаблюдения

Эта сводка был подготовлена 29 минут назад, в 20:50 UTC
Штиль
Температура 4°C
Влажность 100%
Давление 1023 hPa
Видимость 10 км и более

METAR: ESST 192050Z AUTO 00000KT 9999 NCD 04/04 Q1023

Время: 23:19 (21:19 UTC)


TAF: отсутствует

Метеонаблюдения и прогнозы для более 4000 аэропортов (сводки METAR и TAF).

Имеющиеся станции представлены на карте желтыми и красными точками.

Чтобы увидеть название станции, наведите на нее мышь.

Затем щелкните, чтобы увидеть метеонаблюдения и метеопрогнозы.

Управление картой: чтобы увеличить масштаб, щелкните зеленые кнопки с черным крестиком; чтобы уменьшить масштаб, щелкните зеленую кнопку с тире; для просмотра соседних карт щелкайте зеленые стрелки.


METAR-TAF: